Time;durP1;ratioP1;P1;durP2;ratioP2;P2;SDS_P1;SDS_P2;PMS_P1;PMS_P2;Temp;Humidity;BMP_temperature;BMP_pressure;BME280_temperature;BME280_humidity;BME280_pressure;Samples;Min_cycle;Max_cycle;Signal;HPM_P1;HPM_P2
2023/05/01 00:00:24;;;;;;;10.07;6.70;;;19.40;52.30;;;;;;5035419;28;20196;-80
2023/05/01 00:02:54;;;;;;;11.45;7.95;;;19.30;52.20;;;;;;5036415;28;20228;-80
2023/05/01 00:05:20;;;;;;;10.98;7.60;;;19.30;52.20;;;;;;5035275;28;20701;-79
2023/05/01 00:07:48;;;;;;;9.63;6.95;;;19.30;52.20;;;;;;5035304;28;20200;-79
2023/05/01 00:10:18;;;;;;;12.45;8.00;;;19.30;52.30;;;;;;5018712;28;20198;-79
2023/05/01 00:12:45;;;;;;;8.30;6.47;;;19.30;52.30;;;;;;5034993;28;20212;-79
2023/05/01 00:15:12;;;;;;;9.65;6.75;;;19.30;52.30;;;;;;5036930;28;20202;-79
2023/05/01 00:17:40;;;;;;;11.73;7.47;;;19.30;52.20;;;;;;5020932;28;20204;-79
2023/05/01 00:20:08;;;;;;;11.45;7.03;;;19.30;52.20;;;;;;5038218;28;20231;-79
2023/05/01 00:22:35;;;;;;;9.48;7.03;;;19.20;52.20;;;;;;5037759;28;20232;-79
2023/05/01 00:25:02;;;;;;;9.25;6.50;;;19.30;52.30;;;;;;5038299;28;20221;-80
2023/05/01 00:27:31;;;;;;;12.65;7.28;;;19.20;52.20;;;;;;5022718;28;20207;-80
2023/05/01 00:29:59;;;;;;;9.38;7.07;;;19.20;52.10;;;;;;5039677;28;20211;-79
2023/05/01 00:32:26;;;;;;;7.88;6.50;;;19.20;52.30;;;;;;5025416;28;20244;-80
2023/05/01 00:34:55;;;;;;;8.63;5.97;;;19.20;52.30;;;;;;5034104;28;20204;-80
2023/05/01 00:37:22;;;;;;;8.65;6.25;;;19.20;52.00;;;;;;5017556;28;20195;-80
2023/05/01 00:39:49;;;;;;;9.55;6.75;;;19.20;52.20;;;;;;5034020;28;20227;-80
2023/05/01 00:42:16;;;;;;;7.75;6.05;;;19.20;52.20;;;;;;5034073;28;20227;-80
2023/05/01 00:44:45;;;;;;;9.98;6.78;;;19.20;52.30;;;;;;5033936;28;20200;-80
2023/05/01 00:47:12;;;;;;;8.77;6.47;;;19.10;52.30;;;;;;5033658;28;20208;-80
2023/05/01 00:49:40;;;;;;;9.05;6.22;;;19.10;52.40;;;;;;5043036;28;20200;-80
2023/05/01 00:52:08;;;;;;;7.93;6.20;;;19.10;52.40;;;;;;5044615;28;20270;-80
2023/05/01 00:54:35;;;;;;;8.73;6.18;;;19.10;52.50;;;;;;5042693;28;20196;-80
2023/05/01 00:57:03;;;;;;;9.40;6.35;;;19.10;52.40;;;;;;5036817;28;20200;-80
2023/05/01 00:59:30;;;;;;;7.45;5.65;;;19.10;52.50;;;;;;5034336;28;20641;-80
2023/05/01 01:01:58;;;;;;;9.27;6.15;;;19.10;52.60;;;;;;5034067;28;20625;-80
2023/05/01 01:04:27;;;;;;;9.38;6.43;;;19.10;52.50;;;;;;5033827;28;20208;-80
2023/05/01 01:07:08;;;;;;;7.70;5.90;;;19.00;52.40;;;;;;5018194;28;20199;-80
2023/05/01 01:09:38;;;;;;;6.82;5.60;;;19.00;52.40;;;;;;5036415;28;20184;-80
2023/05/01 01:12:09;;;;;;;8.57;6.50;;;19.00;52.50;;;;;;5035324;28;20216;-79
2023/05/01 01:14:40;;;;;;;7.40;5.60;;;19.00;52.50;;;;;;5036153;28;20185;-79
2023/05/01 01:17:11;;;;;;;7.43;6.05;;;19.00;52.50;;;;;;5035494;28;20204;-79
2023/05/01 01:20:05;;;;;;;7.47;6.03;;;19.00;52.50;;;;;;5035577;28;20192;-80
2023/05/01 01:22:32;;;;;;;8.15;6.03;;;19.00;52.60;;;;;;5034673;28;20224;-80
2023/05/01 01:25:47;;;;;;;6.43;5.60;;;19.00;52.60;;;;;;5035758;28;20200;-80
2023/05/01 01:28:32;;;;;;;6.35;5.63;;;19.00;52.60;;;;;;5014819;28;20200;-79
2023/05/01 01:31:10;;;;;;;8.38;6.03;;;19.00;52.50;;;;;;5033744;28;20575;-79
2023/05/01 01:34:03;;;;;;;7.80;5.85;;;19.00;52.50;;;;;;5034023;28;20227;-79
2023/05/01 01:36:35;;;;;;;6.22;5.50;;;18.90;52.50;;;;;;5034892;28;20200;-79
2023/05/01 01:39:06;;;;;;;7.10;5.57;;;19.00;52.50;;;;;;5034816;28;20203;-79
2023/05/01 01:41:34;;;;;;;6.65;5.50;;;18.90;52.50;;;;;;5037055;28;20257;-79
2023/05/01 01:44:04;;;;;;;6.53;5.30;;;18.90;52.50;;;;;;5021564;28;20220;-79
2023/05/01 01:46:31;;;;;;;7.50;5.13;;;18.90;52.50;;;;;;5038112;28;20628;-79
2023/05/01 01:49:00;;;;;;;7.63;5.28;;;18.90;52.50;;;;;;5036522;28;20732;-79
2023/05/01 01:51:28;;;;;;;6.82;5.22;;;18.90;52.50;;;;;;5036386;28;20196;-79
2023/05/01 01:53:56;;;;;;;6.15;5.05;;;18.90;52.60;;;;;;5036733;28;20224;-79
2023/05/01 01:56:24;;;;;;;6.30;5.43;;;18.80;52.40;;;;;;5036876;28;20691;-80
2023/05/01 01:58:51;;;;;;;6.75;5.53;;;18.90;52.50;;;;;;5036814;28;20649;-80
2023/05/01 02:01:19;;;;;;;8.35;5.43;;;18.90;52.40;;;;;;5020755;28;20674;-80
2023/05/01 02:03:46;;;;;;;6.18;5.47;;;18.80;52.40;;;;;;5037073;28;20228;-80
2023/05/01 02:06:15;;;;;;;5.88;4.93;;;18.90;52.40;;;;;;5037812;28;20196;-80
2023/05/01 02:08:42;;;;;;;7.20;5.55;;;18.90;52.40;;;;;;5037951;28;20200;-80
2023/05/01 02:11:10;;;;;;;7.25;5.50;;;18.90;52.50;;;;;;5037712;28;20192;-80
2023/05/01 02:13:37;;;;;;;7.75;5.20;;;18.80;52.30;;;;;;5037860;28;20216;-80
2023/05/01 02:16:05;;;;;;;6.10;5.03;;;18.80;53.00;;;;;;5038079;28;20200;-80
2023/05/01 02:18:32;;;;;;;7.40;5.05;;;18.90;52.50;;;;;;5039118;28;20204;-80
2023/05/01 02:20:59;;;;;;;6.35;5.20;;;18.90;52.40;;;;;;5038870;28;20230;-80
2023/05/01 02:23:28;;;;;;;6.10;5.13;;;18.80;52.40;;;;;;5036122;28;20220;-80
2023/05/01 02:25:56;;;;;;;5.80;4.63;;;18.80;52.40;;;;;;5037838;28;20203;-81
2023/05/01 02:28:24;;;;;;;5.72;4.97;;;18.80;52.30;;;;;;5038201;28;20291;-81
2023/05/01 02:30:51;;;;;;;5.85;5.18;;;18.80;52.40;;;;;;5038524;28;20266;-81
2023/05/01 02:33:18;;;;;;;5.45;4.95;;;18.80;52.40;;;;;;5038441;28;20223;-81
2023/05/01 02:35:47;;;;;;;5.13;4.63;;;18.80;52.40;;;;;;5040153;28;20204;-81
2023/05/01 02:38:16;;;;;;;5.40;4.82;;;18.80;52.40;;;;;;5052763;28;20216;-81
2023/05/01 02:40:46;;;;;;;5.35;4.75;;;18.80;52.40;;;;;;5044164;28;20196;-81
2023/05/01 02:43:15;;;;;;;5.85;5.25;;;18.80;52.40;;;;;;5040307;28;20732;-81
2023/05/01 02:45:42;;;;;;;5.40;4.88;;;18.80;52.30;;;;;;5039062;28;20204;-81
2023/05/01 02:48:10;;;;;;;5.65;5.05;;;18.80;52.30;;;;;;5037834;28;20200;-81
2023/05/01 02:50:39;;;;;;;5.28;4.75;;;18.80;52.40;;;;;;5038902;28;20196;-81
2023/05/01 02:53:07;;;;;;;5.72;4.93;;;18.80;52.40;;;;;;5037212;28;20258;-81
2023/05/01 02:55:43;;;;;;;5.57;4.88;;;18.80;52.40;;;;;;5038029;28;20547;-81
2023/05/01 02:58:16;;;;;;;5.50;4.75;;;18.80;52.40;;;;;;5037580;28;20196;-81
2023/05/01 03:00:44;;;;;;;5.63;4.90;;;18.70;52.30;;;;;;5020227;28;20192;-81
2023/05/01 03:03:11;;;;;;;5.07;4.60;;;18.80;52.40;;;;;;5035956;28;20232;-81
2023/05/01 03:05:39;;;;;;;5.90;4.68;;;18.80;52.40;;;;;;5036297;28;20250;-81
2023/05/01 03:08:06;;;;;;;5.38;4.53;;;18.80;52.30;;;;;;5035831;28;20200;-80
2023/05/01 03:10:33;;;;;;;4.93;4.25;;;18.70;52.20;;;;;;5018755;28;20291;-80
2023/05/01 03:13:01;;;;;;;5.38;4.88;;;18.80;52.30;;;;;;5035690;28;20212;-82
2023/05/01 03:15:29;;;;;;;6.90;4.85;;;18.80;52.30;;;;;;5036164;28;20200;-82
2023/05/01 03:17:56;;;;;;;5.47;4.97;;;18.70;52.30;;;;;;5035078;28;20200;-82
2023/05/01 03:20:23;;;;;;;6.10;4.95;;;18.70;52.80;;;;;;5035144;28;20203;-82
2023/05/01 03:22:50;;;;;;;5.90;4.55;;;18.80;52.30;;;;;;5035916;28;20266;-82
2023/05/01 03:25:18;;;;;;;5.40;4.90;;;18.80;52.10;;;;;;5035632;28;20196;-81
2023/05/01 03:27:45;;;;;;;6.95;5.00;;;18.80;52.20;;;;;;5035736;28;20202;-81
2023/05/01 03:30:12;;;;;;;5.30;4.80;;;18.80;52.10;;;;;;5035398;28;20200;-81
2023/05/01 03:32:42;;;;;;;5.88;5.20;;;18.80;52.10;;;;;;5051688;28;20236;-81
2023/05/01 03:35:17;;;;;;;6.10;4.65;;;18.80;52.20;;;;;;5058376;28;20164;-81
2023/05/01 03:37:45;;;;;;;6.75;4.63;;;18.80;52.20;;;;;;5026291;28;20180;-81
2023/05/01 03:40:19;;;;;;;5.32;4.82;;;18.90;52.50;;;;;;5043517;28;20199;-81
2023/05/01 03:43:05;;;;;;;7.03;4.95;;;18.90;52.30;;;;;;5059316;28;20226;-81
2023/05/01 03:45:33;;;;;;;5.00;4.50;;;19.00;52.10;;;;;;5029479;28;20215;-81
2023/05/01 03:48:01;;;;;;;5.40;4.80;;;19.00;52.00;;;;;;5035412;28;20650;-81
2023/05/01 03:50:30;;;;;;;5.53;4.80;;;19.00;52.00;;;;;;5036254;28;20196;-80
2023/05/01 03:52:58;;;;;;;5.22;4.35;;;19.00;52.00;;;;;;5035656;28;20208;-80
2023/05/01 03:55:25;;;;;;;4.82;4.43;;;19.10;51.90;;;;;;5035935;28;20192;-81
2023/05/01 03:57:52;;;;;;;4.75;4.20;;;19.10;51.90;;;;;;5035470;28;20327;-81
2023/05/01 04:00:20;;;;;;;4.47;4.05;;;19.10;51.80;;;;;;5035406;28;20287;-81
2023/05/01 04:02:48;;;;;;;5.57;4.60;;;19.10;51.80;;;;;;5035110;28;20279;-81
2023/05/01 04:05:21;;;;;;;5.25;4.40;;;19.10;51.70;;;;;;5036100;28;20264;-81
2023/05/01 04:07:53;;;;;;;4.70;4.30;;;19.10;51.50;;;;;;5035071;28;20204;-81
2023/05/01 04:10:20;;;;;;;4.70;4.30;;;19.10;51.40;;;;;;5034451;28;20666;-80
2023/05/01 04:13:00;;;;;;;4.90;4.18;;;19.10;51.40;;;;;;5033309;28;20775;-80
2023/05/01 04:15:27;;;;;;;5.30;4.70;;;19.10;51.50;;;;;;5033746;28;20407;-80
2023/05/01 04:17:56;;;;;;;6.75;4.68;;;19.00;51.40;;;;;;5033106;28;20199;-80
2023/05/01 04:20:25;;;;;;;4.82;4.03;;;19.10;51.60;;;;;;5033352;28;20192;-80
2023/05/01 04:22:53;;;;;;;4.68;4.20;;;19.10;51.40;;;;;;5035003;28;20219;-80
2023/05/01 04:25:21;;;;;;;5.00;4.45;;;19.00;51.40;;;;;;5051212;28;20216;-80
2023/05/01 04:27:50;;;;;;;5.10;4.60;;;19.00;51.40;;;;;;5044226;28;20195;-81
2023/05/01 04:30:18;;;;;;;4.90;4.40;;;19.00;51.60;;;;;;5038358;28;20298;-81
2023/05/01 04:32:45;;;;;;;5.20;4.20;;;19.00;51.60;;;;;;5038277;28;20274;-81
2023/05/01 04:35:12;;;;;;;6.13;4.70;;;19.00;51.50;;;;;;5037501;28;20200;-81
2023/05/01 04:37:44;;;;;;;4.95;4.45;;;19.10;51.60;;;;;;5036956;28;20188;-81
2023/05/01 04:40:12;;;;;;;4.88;4.38;;;19.00;51.40;;;;;;5036630;28;20204;-81
2023/05/01 04:42:41;;;;;;;5.00;4.38;;;19.00;51.50;;;;;;5036327;28;20216;-81
2023/05/01 04:45:12;;;;;;;4.70;4.30;;;19.00;51.60;;;;;;5036075;28;20207;-81
2023/05/01 04:47:39;;;;;;;4.72;4.32;;;19.00;51.60;;;;;;5034757;28;20204;-81
2023/05/01 04:50:07;;;;;;;5.43;4.72;;;19.00;51.50;;;;;;5032668;28;20195;-81
2023/05/01 04:52:34;;;;;;;4.45;4.05;;;19.10;51.50;;;;;;5032850;28;20216;-81
2023/05/01 04:55:05;;;;;;;4.47;4.05;;;19.00;51.60;;;;;;5032809;28;20619;-81
2023/05/01 04:57:36;;;;;;;4.70;4.20;;;19.10;51.70;;;;;;5033260;28;20202;-81
2023/05/01 05:00:07;;;;;;;4.55;4.15;;;19.10;51.60;;;;;;5032695;28;20196;-81
2023/05/01 05:02:41;;;;;;;4.97;4.35;;;19.10;51.60;;;;;;5032883;28;20211;-81
2023/05/01 05:05:09;;;;;;;4.30;3.90;;;19.10;51.40;;;;;;5033637;28;20196;-81
2023/05/01 05:07:36;;;;;;;5.50;4.18;;;19.10;51.40;;;;;;5034510;28;20195;-81
2023/05/01 05:10:34;;;;;;;4.93;3.95;;;19.10;51.40;;;;;;4997876;28;20225;-81
2023/05/01 05:13:16;;;;;;;4.40;4.00;;;19.10;51.50;;;;;;5032742;28;20307;-81
2023/05/01 05:15:44;;;;;;;4.32;3.90;;;19.10;51.40;;;;;;5034568;28;20199;-81
2023/05/01 05:18:12;;;;;;;4.32;3.97;;;19.10;51.50;;;;;;5020856;28;20196;-81
2023/05/01 05:20:40;;;;;;;4.10;3.80;;;19.10;51.50;;;;;;5036813;28;20192;-81
2023/05/01 05:23:06;;;;;;;4.18;3.88;;;19.10;51.60;;;;;;5036475;28;20227;-81
2023/05/01 05:25:35;;;;;;;4.50;4.10;;;19.10;51.50;;;;;;5036382;28;20192;-81
2023/05/01 05:28:02;;;;;;;4.10;3.70;;;19.10;51.40;;;;;;5036533;28;20208;-81
2023/05/01 05:30:29;;;;;;;4.28;3.88;;;19.10;51.50;;;;;;5036481;28;20216;-81
2023/05/01 05:32:57;;;;;;;4.57;4.18;;;19.10;51.60;;;;;;5036551;28;20216;-81
2023/05/01 05:35:24;;;;;;;4.38;3.97;;;19.10;51.50;;;;;;5036513;28;20228;-81
2023/05/01 05:37:51;;;;;;;4.70;3.80;;;19.20;51.80;;;;;;5036172;28;20200;-81
2023/05/01 05:40:19;;;;;;;4.55;4.15;;;19.20;51.60;;;;;;5036369;28;20593;-82
2023/05/01 05:42:56;;;;;;;4.57;4.00;;;19.10;51.50;;;;;;5021342;28;20363;-82
2023/05/01 05:45:25;;;;;;;4.50;4.10;;;19.20;51.40;;;;;;5036979;28;20249;-82
2023/05/01 05:47:53;;;;;;;4.50;3.88;;;19.20;51.60;;;;;;5037731;28;20196;-82
2023/05/01 05:50:20;;;;;;;4.53;4.05;;;19.20;51.50;;;;;;5036629;28;20200;-82
2023/05/01 05:52:47;;;;;;;4.40;3.75;;;19.20;51.50;;;;;;5037288;28;20227;-82
2023/05/01 05:55:15;;;;;;;4.10;3.65;;;19.20;51.40;;;;;;5037816;28;20196;-82
2023/05/01 05:57:50;;;;;;;4.32;3.92;;;19.20;51.50;;;;;;5037272;28;20219;-82
2023/05/01 06:00:19;;;;;;;5.07;4.10;;;19.20;51.40;;;;;;5036842;28;20200;-82
2023/05/01 06:02:50;;;;;;;4.10;3.70;;;19.20;51.40;;;;;;5036779;28;20246;-82
2023/05/01 06:05:19;;;;;;;4.57;4.18;;;19.20;51.30;;;;;;5036269;28;20216;-82
2023/05/01 06:07:46;;;;;;;4.70;4.00;;;19.20;51.30;;;;;;5035857;28;20220;-82
2023/05/01 06:10:14;;;;;;;4.60;4.18;;;19.20;51.20;;;;;;5036342;28;20611;-81
2023/05/01 06:12:41;;;;;;;4.10;3.70;;;19.20;51.20;;;;;;5051736;28;20242;-82
2023/05/01 06:15:09;;;;;;;4.50;4.10;;;19.30;51.40;;;;;;5047143;28;20215;-82
2023/05/01 06:17:43;;;;;;;4.13;3.72;;;19.30;51.20;;;;;;5041348;28;20227;-81
2023/05/01 06:20:12;;;;;;;4.05;3.70;;;19.30;51.30;;;;;;5039720;28;20572;-81
2023/05/01 06:22:39;;;;;;;4.10;3.55;;;19.30;51.40;;;;;;5037316;28;20307;-81
2023/05/01 06:25:14;;;;;;;4.30;3.90;;;19.30;51.40;;;;;;5035800;28;20215;-81
2023/05/01 06:27:41;;;;;;;4.88;4.47;;;19.30;51.20;;;;;;5034811;28;20693;-81
2023/05/01 06:30:09;;;;;;;4.28;3.95;;;19.30;51.20;;;;;;5034976;28;20284;-81
2023/05/01 06:32:40;;;;;;;4.30;3.90;;;19.40;51.20;;;;;;5035472;28;20241;-81
2023/05/01 06:35:10;;;;;;;3.75;3.45;;;19.40;51.20;;;;;;5035194;28;20265;-81
2023/05/01 06:37:37;;;;;;;4.25;3.85;;;19.50;51.10;;;;;;5035946;28;20196;-81
2023/05/01 06:40:08;;;;;;;4.90;3.90;;;19.50;51.00;;;;;;5035495;28;20200;-81
2023/05/01 06:42:35;;;;;;;4.18;3.78;;;19.50;51.00;;;;;;5019110;28;20311;-81
2023/05/01 06:45:02;;;;;;;4.75;4.18;;;19.50;50.80;;;;;;5035809;28;20216;-80
2023/05/01 06:47:29;;;;;;;4.45;4.05;;;19.60;50.90;;;;;;5035210;28;20701;-81
2023/05/01 06:49:56;;;;;;;4.35;4.05;;;19.60;50.90;;;;;;5035601;28;20200;-81
2023/05/01 06:52:25;;;;;;;4.05;3.75;;;19.60;50.80;;;;;;5035145;28;20220;-81
2023/05/01 06:54:52;;;;;;;4.60;4.20;;;19.60;50.80;;;;;;5035201;28;20656;-81
2023/05/01 06:57:19;;;;;;;4.63;4.22;;;19.60;50.70;;;;;;5036010;28;20200;-81
2023/05/01 06:59:46;;;;;;;4.10;3.80;;;19.60;50.70;;;;;;5040302;28;20196;-81
2023/05/01 07:02:13;;;;;;;4.50;4.10;;;19.60;50.80;;;;;;5035398;28;20212;-81
2023/05/01 07:04:40;;;;;;;4.47;3.97;;;19.70;50.80;;;;;;5035868;28;20705;-81
2023/05/01 07:07:07;;;;;;;4.85;4.45;;;19.70;50.70;;;;;;5036217;28;20204;-81
2023/05/01 07:09:37;;;;;;;5.55;4.57;;;19.70;50.50;;;;;;5035812;28;20207;-81
2023/05/01 07:12:05;;;;;;;4.45;4.05;;;19.70;50.40;;;;;;5035132;28;20274;-81
2023/05/01 07:14:33;;;;;;;4.70;4.25;;;19.70;50.40;;;;;;5035009;28;20291;-81
2023/05/01 07:17:00;;;;;;;4.13;3.83;;;19.70;50.40;;;;;;5018524;28;20196;-81
2023/05/01 07:19:27;;;;;;;4.72;4.25;;;19.70;50.30;;;;;;5018537;28;20206;-81
2023/05/01 07:21:54;;;;;;;5.13;4.20;;;19.70;50.00;;;;;;5034494;28;20196;-81
2023/05/01 07:24:22;;;;;;;4.82;4.10;;;19.70;50.00;;;;;;5034555;28;20224;-81
2023/05/01 07:26:50;;;;;;;4.22;3.88;;;19.70;50.00;;;;;;5018186;28;20208;-81
2023/05/01 07:29:17;;;;;;;5.00;4.43;;;19.70;50.00;;;;;;5034380;28;20265;-81
2023/05/01 07:31:45;;;;;;;4.70;4.28;;;19.70;50.10;;;;;;5034360;28;20196;-81
2023/05/01 07:34:12;;;;;;;4.50;4.10;;;19.70;50.00;;;;;;5034213;28;20196;-81
2023/05/01 07:36:40;;;;;;;4.85;4.45;;;19.80;50.00;;;;;;5017958;28;20204;-81
2023/05/01 07:39:07;;;;;;;5.15;4.70;;;19.80;50.10;;;;;;5034175;28;20295;-81
2023/05/01 07:41:34;;;;;;;4.85;4.43;;;19.80;50.00;;;;;;5035122;28;20188;-81
2023/05/01 07:44:03;;;;;;;4.68;4.28;;;19.80;50.10;;;;;;5033945;28;20644;-81
2023/05/01 07:46:30;;;;;;;4.78;4.32;;;19.80;50.00;;;;;;5034903;28;20616;-81
2023/05/01 07:48:57;;;;;;;4.20;3.88;;;19.90;50.10;;;;;;5033779;28;20203;-81
2023/05/01 07:51:24;;;;;;;5.32;4.13;;;19.90;49.80;;;;;;5034158;28;20208;-81
2023/05/01 07:53:51;;;;;;;4.25;3.95;;;19.90;49.90;;;;;;5033651;28;20215;-81
2023/05/01 07:56:18;;;;;;;5.03;4.03;;;19.90;49.80;;;;;;5033998;28;20202;-82
2023/05/01 07:58:45;;;;;;;5.22;4.50;;;20.00;49.90;;;;;;5034021;28;20290;-82
2023/05/01 08:01:14;;;;;;;4.25;3.83;;;20.00;49.70;;;;;;5033644;28;20196;-81
2023/05/01 08:03:41;;;;;;;4.65;4.25;;;20.00;49.50;;;;;;5033379;28;20252;-81
2023/05/01 08:06:08;;;;;;;4.55;4.15;;;20.00;49.50;;;;;;5034515;28;20337;-81
2023/05/01 08:08:35;;;;;;;4.88;4.38;;;20.10;49.40;;;;;;5033794;28;20196;-81
2023/05/01 08:11:02;;;;;;;5.25;4.72;;;20.10;49.50;;;;;;5034438;28;20196;-81
2023/05/01 08:13:29;;;;;;;4.40;4.00;;;20.10;49.40;;;;;;5033774;28;20278;-81
2023/05/01 08:16:00;;;;;;;4.38;3.97;;;20.10;49.90;;;;;;5035600;28;20192;-81
2023/05/01 08:18:28;;;;;;;4.35;4.03;;;20.10;49.50;;;;;;5033946;28;20226;-81
2023/05/01 08:20:55;;;;;;;4.85;4.38;;;20.10;49.30;;;;;;5034000;28;20200;-82
2023/05/01 08:23:24;;;;;;;4.93;4.53;;;20.20;49.40;;;;;;5033969;28;20223;-84
2023/05/01 08:25:51;;;;;;;4.72;4.32;;;20.10;49.20;;;;;;5033195;28;20678;-82
2023/05/01 08:28:19;;;;;;;4.45;4.05;;;20.20;49.30;;;;;;5034242;28;20238;-82
2023/05/01 08:30:47;;;;;;;4.30;4.00;;;20.20;49.20;;;;;;5033157;28;20226;-82
2023/05/01 08:33:15;;;;;;;4.65;4.18;;;20.20;49.30;;;;;;5034506;28;20212;-82
2023/05/01 08:35:43;;;;;;;4.28;3.88;;;20.20;49.30;;;;;;5032793;28;20200;-82
2023/05/01 08:38:10;;;;;;;4.68;4.20;;;20.30;49.30;;;;;;5033155;28;20275;-82
2023/05/01 08:40:38;;;;;;;4.43;4.03;;;20.30;49.10;;;;;;5032756;28;20207;-81
2023/05/01 08:43:11;;;;;;;4.60;4.20;;;20.40;49.20;;;;;;5033248;28;20220;-81
2023/05/01 08:45:38;;;;;;;4.32;3.92;;;20.40;49.00;;;;;;5033348;28;20271;-81
2023/05/01 08:48:06;;;;;;;4.78;4.13;;;20.40;49.10;;;;;;5033304;28;20200;-81
2023/05/01 08:50:34;;;;;;;4.28;3.88;;;20.50;49.30;;;;;;5032800;28;20200;-81
2023/05/01 08:53:03;;;;;;;3.92;3.63;;;20.50;49.30;;;;;;5033560;28;20266;-81
2023/05/01 08:55:30;;;;;;;4.30;3.97;;;20.60;49.20;;;;;;5034081;28;20283;-80
2023/05/01 08:57:58;;;;;;;4.03;3.72;;;20.70;48.90;;;;;;5033223;28;20573;-81
2023/05/01 09:00:26;;;;;;;4.30;3.70;;;20.80;48.80;;;;;;5032908;28;20200;-82
2023/05/01 09:02:52;;;;;;;4.13;3.83;;;20.80;48.50;;;;;;5032735;28;20220;-81
2023/05/01 09:05:20;;;;;;;4.20;3.80;;;20.90;48.50;;;;;;5033336;28;20223;-81
2023/05/01 09:07:47;;;;;;;4.47;4.07;;;21.00;48.40;;;;;;5016891;28;20196;-81
2023/05/01 09:10:16;;;;;;;4.55;3.92;;;21.10;48.20;;;;;;5032856;28;20250;-81
2023/05/01 09:12:45;;;;;;;4.15;3.75;;;21.20;48.10;;;;;;5032860;28;20274;-83
2023/05/01 09:15:12;;;;;;;4.28;3.92;;;21.30;48.20;;;;;;5033778;28;20532;-83
2023/05/01 09:17:39;;;;;;;8.15;4.20;;;21.40;48.20;;;;;;5033705;28;20200;-85
2023/05/01 09:20:07;;;;;;;5.03;4.22;;;21.40;48.20;;;;;;5032627;28;20199;-85
2023/05/01 09:22:35;;;;;;;5.22;4.25;;;21.50;48.40;;;;;;5032772;28;20290;-85
2023/05/01 09:25:02;;;;;;;4.72;4.30;;;21.50;48.20;;;;;;5016920;28;20238;-85
2023/05/01 09:27:33;;;;;;;4.50;4.07;;;21.50;48.40;;;;;;5033199;28;20188;-85
2023/05/01 09:30:01;;;;;;;4.85;4.35;;;21.60;48.40;;;;;;5032310;28;20204;-85
2023/05/01 09:32:27;;;;;;;4.50;4.10;;;21.70;48.80;;;;;;5032573;28;20212;-84
2023/05/01 09:34:55;;;;;;;4.50;3.60;;;21.70;48.60;;;;;;5033203;28;20192;-84
2023/05/01 09:37:27;;;;;;;4.90;4.50;;;21.70;48.60;;;;;;5033213;28;20269;-84
2023/05/01 09:40:03;;;;;;;4.85;4.30;;;21.80;48.60;;;;;;5032327;28;20254;-84
2023/05/01 09:42:32;;;;;;;4.20;3.80;;;21.80;48.90;;;;;;5032315;28;20220;-84
2023/05/01 09:44:59;;;;;;;4.03;3.72;;;21.80;48.80;;;;;;5032127;28;20216;-85
2023/05/01 09:47:27;;;;;;;3.58;3.28;;;21.90;48.50;;;;;;5032768;28;20192;-84
2023/05/01 09:49:56;;;;;;;4.68;4.10;;;21.90;48.70;;;;;;5032783;28;20213;-84
2023/05/01 09:52:23;;;;;;;4.57;4.10;;;22.10;48.60;;;;;;5033442;28;20219;-84
2023/05/01 09:54:50;;;;;;;4.55;3.80;;;22.10;48.60;;;;;;5033714;28;20203;-84
2023/05/01 09:57:17;;;;;;;3.95;3.65;;;22.20;48.10;;;;;;5033095;28;20199;-84
2023/05/01 09:59:50;;;;;;;4.10;3.78;;;22.30;48.00;;;;;;5032598;28;20197;-84
2023/05/01 10:02:28;;;;;;;4.32;3.65;;;22.40;47.70;;;;;;5034721;28;20569;-84
2023/05/01 10:04:58;;;;;;;4.20;3.90;;;22.50;48.30;;;;;;5035967;28;20243;-84
2023/05/01 10:07:25;;;;;;;3.83;3.53;;;22.50;48.00;;;;;;5036011;28;20207;-83
2023/05/01 10:09:52;;;;;;;4.10;3.80;;;22.70;47.90;;;;;;5036188;28;20208;-84
2023/05/01 10:12:24;;;;;;;4.88;3.33;;;22.70;47.90;;;;;;5036349;28;20291;-85
2023/05/01 10:14:53;;;;;;;4.20;3.72;;;22.60;47.60;;;;;;5037192;28;20200;-85
2023/05/01 10:17:20;;;;;;;4.13;3.60;;;22.70;47.50;;;;;;5038725;28;20192;-81
2023/05/01 10:19:47;;;;;;;4.10;3.70;;;22.60;47.40;;;;;;5021594;28;20200;-84
2023/05/01 10:22:14;;;;;;;4.20;3.80;;;22.60;47.80;;;;;;5021878;28;20216;-83
2023/05/01 10:24:42;;;;;;;4.32;3.70;;;22.60;47.60;;;;;;5036939;28;20597;-82
2023/05/01 10:27:10;;;;;;;3.67;3.38;;;22.50;47.60;;;;;;5037596;28;20200;-82
2023/05/01 10:29:37;;;;;;;4.07;3.67;;;22.50;47.70;;;;;;5036577;28;20231;-82
2023/05/01 10:32:07;;;;;;;3.47;3.17;;;22.40;47.70;;;;;;5020074;28;20219;-82
2023/05/01 10:34:34;;;;;;;3.25;3.05;;;22.40;47.70;;;;;;5037426;28;20195;-82
2023/05/01 10:37:05;;;;;;;3.58;3.28;;;22.30;47.60;;;;;;5037882;28;20211;-82
2023/05/01 10:39:32;;;;;;;4.55;3.75;;;22.40;47.70;;;;;;5038486;28;20219;-82
2023/05/01 10:42:09;;;;;;;3.90;3.60;;;22.40;47.80;;;;;;5037826;28;20642;-82
2023/05/01 10:44:37;;;;;;;3.58;3.28;;;22.40;47.70;;;;;;5037328;28;20278;-82
2023/05/01 10:47:48;;;;;;;3.60;3.30;;;22.40;47.70;;;;;;5037310;28;20196;-82
2023/05/01 10:50:15;;;;;;;3.85;3.55;;;22.40;47.70;;;;;;4979574;28;20225;-82
2023/05/01 10:53:16;;;;;;;3.85;3.55;;;22.50;47.50;;;;;;4963679;28;20260;-84
2023/05/01 10:55:44;;;;;;;3.35;3.15;;;22.50;47.50;;;;;;5004815;28;20242;-80
2023/05/01 10:58:11;;;;;;;3.40;3.10;;;22.50;47.60;;;;;;5037780;28;20196;-80
2023/05/01 11:00:38;;;;;;;3.60;3.30;;;22.60;47.50;;;;;;5038252;28;20200;-80
2023/05/01 11:03:39;;;;;;;3.83;3.53;;;22.60;47.20;;;;;;5038740;28;20311;-80
2023/05/01 11:06:06;;;;;;;4.00;3.60;;;22.60;47.50;;;;;;5037891;28;20212;-80
2023/05/01 11:08:34;;;;;;;3.60;3.30;;;22.60;47.20;;;;;;5038267;28;20200;-80
2023/05/01 11:11:38;;;;;;;3.75;3.45;;;22.60;47.10;;;;;;5038481;28;20204;-80
2023/05/01 11:14:07;;;;;;;3.50;3.20;;;22.60;47.50;;;;;;5037320;28;20216;-81
2023/05/01 11:16:45;;;;;;;3.58;3.28;;;22.60;47.30;;;;;;5021528;28;20202;-81
2023/05/01 11:19:33;;;;;;;5.72;3.38;;;22.60;47.50;;;;;;5037419;28;20261;-81
2023/05/01 11:22:00;;;;;;;4.18;3.53;;;22.60;47.80;;;;;;5037247;28;20192;-81
2023/05/01 11:24:33;;;;;;;3.63;3.33;;;22.60;47.60;;;;;;5038832;28;20246;-79
2023/05/01 11:27:00;;;;;;;5.40;3.35;;;22.60;47.70;;;;;;5038166;28;20227;-79
2023/05/01 11:29:31;;;;;;;4.55;3.65;;;22.50;47.50;;;;;;5037698;28;20230;-79
2023/05/01 11:31:59;;;;;;;3.75;3.45;;;22.60;47.60;;;;;;5037578;28;20234;-80
2023/05/01 11:34:27;;;;;;;3.67;3.38;;;22.50;47.40;;;;;;5038057;28;20199;-80
2023/05/01 11:36:55;;;;;;;3.78;3.47;;;22.50;47.20;;;;;;5037324;28;20196;-81
2023/05/01 11:39:22;;;;;;;3.92;3.63;;;22.50;47.20;;;;;;5037882;28;20196;-81
2023/05/01 11:41:49;;;;;;;3.60;3.30;;;22.50;47.30;;;;;;5037879;28;20212;-81
2023/05/01 11:44:16;;;;;;;4.15;3.53;;;22.50;47.20;;;;;;5035098;28;20223;-81
2023/05/01 11:46:43;;;;;;;3.60;3.30;;;22.50;47.20;;;;;;5034371;28;20269;-81
2023/05/01 11:49:11;;;;;;;4.00;3.70;;;22.50;47.30;;;;;;5034556;28;20196;-81
2023/05/01 11:51:39;;;;;;;3.92;3.47;;;22.50;47.10;;;;;;5018444;28;20199;-81
2023/05/01 11:54:08;;;;;;;3.58;3.28;;;22.50;47.20;;;;;;5035793;28;20347;-81
2023/05/01 11:56:35;;;;;;;4.18;3.78;;;22.50;47.20;;;;;;5036282;28;20206;-81
2023/05/01 11:59:10;;;;;;;3.42;3.20;;;22.40;47.10;;;;;;5035936;28;20207;-81
2023/05/01 12:01:38;;;;;;;3.70;3.40;;;22.40;47.10;;;;;;5035628;28;20568;-81
2023/05/01 12:04:06;;;;;;;3.50;3.20;;;22.40;47.00;;;;;;5037274;28;20262;-80
2023/05/01 12:06:42;;;;;;;3.42;3.13;;;22.30;46.90;;;;;;5036075;28;20301;-80
2023/05/01 12:09:11;;;;;;;3.78;3.42;;;22.40;47.00;;;;;;5036664;28;20196;-81
2023/05/01 12:11:38;;;;;;;3.90;3.60;;;22.30;47.10;;;;;;5037478;28;20206;-81
2023/05/01 12:14:05;;;;;;;3.47;3.17;;;22.30;47.10;;;;;;5037250;28;20220;-81
2023/05/01 12:16:32;;;;;;;3.38;3.08;;;22.30;46.90;;;;;;5036630;28;20199;-81
2023/05/01 12:18:59;;;;;;;20.05;12.00;;;22.30;46.90;;;;;;5020322;28;20239;-80
2023/05/01 12:21:27;;;;;;;13.68;8.95;;;22.30;46.90;;;;;;5035008;28;20204;-80
2023/05/01 12:23:54;;;;;;;24.25;15.00;;;22.30;47.60;;;;;;5034511;28;20220;-80
2023/05/01 12:26:23;;;;;;;43.28;23.23;;;22.30;47.00;;;;;;5033960;28;20235;-80
2023/05/01 12:28:54;;;;;;;41.83;21.50;;;22.30;46.90;;;;;;5034856;28;20216;-80
2023/05/01 12:31:22;;;;;;;36.67;20.42;;;22.30;46.80;;;;;;5034235;28;20203;-80
2023/05/01 12:33:57;;;;;;;38.10;19.88;;;22.40;47.20;;;;;;5018376;28;20277;-80
2023/05/01 12:36:26;;;;;;;32.00;17.77;;;22.40;47.00;;;;;;5034130;28;20196;-80
2023/05/01 12:39:00;;;;;;;36.67;19.55;;;22.40;47.20;;;;;;5034204;28;20204;-80
2023/05/01 12:41:36;;;;;;;35.45;18.85;;;22.40;47.80;;;;;;5033828;28;20611;-80
2023/05/01 12:44:03;;;;;;;30.52;17.25;;;22.30;47.60;;;;;;5035039;28;20209;-80
2023/05/01 12:46:30;;;;;;;29.33;16.02;;;22.30;47.80;;;;;;5033349;28;20641;-80
2023/05/01 12:48:58;;;;;;;31.60;16.40;;;22.40;47.80;;;;;;5033727;28;20196;-80
2023/05/01 12:51:26;;;;;;;26.83;15.95;;;22.30;47.60;;;;;;5033555;28;20199;-80
2023/05/01 12:53:56;;;;;;;31.10;16.30;;;22.40;48.10;;;;;;5032992;28;20234;-80
2023/05/01 12:56:24;;;;;;;25.75;15.07;;;22.40;48.20;;;;;;5033313;28;20291;-80